createdAt,value
2023-05-08T00:00:16.049Z,48.2
2023-05-08T00:05:16.037Z,48.4
2023-05-08T00:10:16.176Z,48.7
2023-05-08T00:15:16.136Z,49.7
2023-05-08T00:20:16.049Z,48.5
2023-05-08T00:25:16.098Z,48.8
2023-05-08T00:30:16.193Z,48.2
2023-05-08T00:35:16.115Z,47.5
2023-05-08T00:40:16.241Z,48.0
2023-05-08T00:45:16.149Z,48.1
2023-05-08T00:50:16.259Z,48.2
2023-05-08T00:55:16.296Z,49.5
2023-05-08T01:00:16.106Z,49.5
2023-05-08T01:05:16.189Z,49.5
2023-05-08T01:10:16.180Z,49.8
2023-05-08T01:15:16.220Z,49.5
2023-05-08T01:20:16.206Z,49.4
2023-05-08T01:25:16.292Z,49.3
2023-05-08T01:30:16.378Z,49.0
2023-05-08T01:35:16.275Z,49.9
2023-05-08T01:40:16.639Z,48.5
2023-05-08T01:45:16.407Z,49.1
2023-05-08T01:50:16.409Z,49.6
2023-05-08T01:55:16.285Z,50.5
2023-05-08T02:00:16.255Z,49.2
2023-05-08T02:05:16.300Z,49.6
2023-05-08T02:10:16.338Z,50.6
2023-05-08T02:15:16.286Z,46.1
2023-05-08T02:20:16.516Z,46.0
2023-05-08T02:25:16.488Z,46.2
2023-05-08T02:30:16.294Z,46.4
2023-05-08T02:35:16.435Z,46.7
2023-05-08T02:40:16.382Z,46.1
2023-05-08T02:45:16.383Z,46.6
2023-05-08T02:50:16.597Z,47.9
2023-05-08T02:55:16.707Z,48.4
2023-05-08T03:00:16.438Z,47.8
2023-05-08T03:05:16.659Z,48.4
2023-05-08T03:10:16.417Z,48.8
2023-05-08T03:15:16.531Z,49.9
2023-05-08T03:20:16.455Z,49.7
2023-05-08T03:25:16.466Z,50.2
2023-05-08T03:30:16.438Z,50.4
2023-05-08T03:35:16.535Z,50.5
2023-05-08T03:40:16.457Z,50.3
2023-05-08T03:45:16.635Z,50.8
2023-05-08T03:50:16.683Z,50.9
2023-05-08T03:55:16.578Z,50.7
2023-05-08T04:00:15.677Z,51.3
2023-05-08T04:05:15.529Z,51.3
2023-05-08T04:10:15.761Z,51.7
2023-05-08T04:15:15.855Z,51.4
2023-05-08T04:20:15.671Z,50.9
2023-05-08T04:25:15.752Z,51.6
2023-05-08T04:30:15.558Z,51.3
2023-05-08T04:35:15.779Z,51.2
2023-05-08T04:40:15.673Z,51.2
2023-05-08T04:45:15.709Z,50.8
2023-05-08T04:50:15.961Z,51.1
2023-05-08T04:55:15.744Z,51.9
2023-05-08T05:00:15.714Z,52.1
2023-05-08T05:05:15.693Z,51.9
2023-05-08T05:10:15.710Z,52.1
2023-05-08T05:15:15.886Z,51.8
2023-05-08T05:20:15.709Z,51.7
2023-05-08T05:25:15.938Z,51.6
2023-05-08T05:30:15.757Z,51.8
2023-05-08T05:35:15.772Z,51.8
2023-05-08T05:40:15.701Z,51.9
2023-05-08T05:45:15.791Z,51.8
2023-05-08T05:50:15.757Z,52.2
2023-05-08T05:55:15.926Z,52.0
2023-05-08T06:00:15.997Z,52.0
2023-05-08T06:05:15.898Z,52.1
2023-05-08T06:10:15.751Z,52.3
2023-05-08T06:15:15.821Z,52.2
2023-05-08T06:20:15.880Z,52.2
2023-05-08T06:25:15.817Z,52.1
2023-05-08T06:30:15.827Z,52.0
2023-05-08T06:35:15.794Z,52.3
2023-05-08T06:40:15.861Z,52.3
2023-05-08T06:45:16.201Z,52.2
2023-05-08T06:50:15.922Z,52.2
2023-05-08T06:55:15.903Z,52.2
2023-05-08T07:00:16.045Z,52.6
2023-05-08T07:05:16.554Z,52.9
2023-05-08T07:10:15.897Z,52.6
2023-05-08T07:15:25.372Z,52.3
2023-05-08T07:20:15.905Z,52.3
2023-05-08T07:25:15.976Z,52.6
2023-05-08T07:30:16.073Z,52.7
2023-05-08T07:35:16.307Z,52.6
2023-05-08T07:40:15.974Z,52.5
2023-05-08T07:45:16.202Z,52.1
2023-05-08T07:50:16.051Z,51.8
2023-05-08T07:55:16.010Z,51.9
2023-05-08T08:00:16.045Z,52.0
2023-05-08T08:05:16.086Z,52.1
2023-05-08T08:10:16.060Z,51.8
2023-05-08T08:15:16.132Z,51.9
2023-05-08T08:20:16.121Z,52.3
2023-05-08T08:25:16.074Z,52.2
2023-05-08T08:30:18.365Z,52.3
2023-05-08T08:35:16.701Z,52.2
2023-05-08T08:40:16.295Z,52.1
2023-05-08T08:45:16.656Z,52.1
2023-05-08T08:50:16.182Z,51.9
2023-05-08T08:55:16.272Z,51.9
2023-05-08T09:00:16.132Z,52.3
2023-05-08T09:05:16.190Z,52.2
2023-05-08T09:10:16.168Z,52.5
2023-05-08T09:15:16.386Z,51.9
2023-05-08T09:20:16.286Z,51.9
2023-05-08T09:25:16.374Z,51.8
2023-05-08T09:30:16.248Z,51.8
2023-05-08T09:35:16.433Z,51.8
2023-05-08T09:40:16.304Z,52.0
2023-05-08T09:45:16.183Z,52.1
2023-05-08T09:50:16.497Z,51.7
2023-05-08T09:55:16.304Z,51.6
2023-05-08T10:00:16.574Z,51.9
2023-05-08T10:05:16.415Z,51.9
2023-05-08T10:10:16.517Z,52.1
2023-05-08T10:15:16.304Z,52.2
2023-05-08T10:20:16.359Z,52.8
2023-05-08T10:25:16.291Z,52.7
2023-05-08T10:30:16.347Z,52.5
2023-05-08T10:35:16.341Z,52.1
2023-05-08T10:40:16.537Z,51.8
2023-05-08T10:45:16.391Z,52.1
2023-05-08T10:50:16.461Z,52.4
2023-05-08T10:55:16.396Z,52.7
2023-05-08T11:00:16.447Z,52.6
2023-05-08T11:05:16.382Z,52.1
2023-05-08T11:10:16.678Z,52.3
2023-05-08T11:15:16.408Z,52.1
2023-05-08T11:20:16.697Z,51.7
2023-05-08T11:25:16.584Z,51.7
2023-05-08T11:30:16.425Z,51.7
2023-05-08T11:35:16.514Z,51.7
2023-05-08T11:40:16.556Z,51.6
2023-05-08T11:45:16.462Z,51.8
2023-05-08T11:50:16.878Z,51.6
2023-05-08T11:55:16.529Z,51.8
2023-05-08T12:00:16.967Z,51.7
2023-05-08T12:05:16.586Z,51.4
2023-05-08T12:10:17.315Z,51.7
2023-05-08T12:15:16.603Z,51.6
2023-05-08T12:20:17.040Z,51.6
2023-05-08T12:25:16.702Z,51.5
2023-05-08T12:30:17.135Z,51.4
2023-05-08T12:35:16.602Z,52.0
2023-05-08T12:40:16.648Z,52.6
2023-05-08T12:45:16.644Z,52.8
2023-05-08T12:50:16.674Z,53.4
2023-05-08T12:55:16.596Z,53.4
2023-05-08T13:00:16.851Z,53.3
2023-05-08T13:05:16.677Z,53.4
2023-05-08T13:10:16.753Z,53.2
2023-05-08T13:15:16.766Z,53.3
2023-05-08T13:20:16.877Z,52.6
2023-05-08T13:25:16.627Z,52.5
2023-05-08T13:30:16.813Z,52.3
2023-05-08T13:35:17.175Z,52.5
2023-05-08T13:40:16.701Z,51.7
2023-05-08T13:45:16.934Z,51.8
2023-05-08T13:50:16.970Z,52.2
2023-05-08T13:55:17.065Z,51.9
2023-05-08T14:00:16.816Z,50.4
2023-05-08T14:05:16.997Z,49.8
2023-05-08T14:10:16.774Z,49.0
2023-05-08T14:15:17.070Z,49.5
2023-05-08T14:20:16.966Z,49.5
2023-05-08T14:25:16.836Z,49.6
2023-05-08T14:30:16.833Z,49.0
2023-05-08T14:35:17.019Z,48.9
2023-05-08T14:40:17.004Z,49.8
2023-05-08T14:45:17.207Z,50.5
2023-05-08T14:50:17.105Z,49.9
2023-05-08T14:55:17.359Z,50.1
2023-05-08T15:00:17.178Z,49.6
2023-05-08T15:05:19.950Z,49.5
2023-05-08T15:10:16.981Z,49.2
2023-05-08T15:15:17.112Z,49.4
2023-05-08T15:20:17.099Z,48.5
2023-05-08T15:25:17.154Z,49.7
2023-05-08T15:30:16.982Z,49.7
2023-05-08T15:35:17.038Z,48.4
2023-05-08T15:40:17.028Z,49.2
2023-05-08T15:45:17.208Z,47.6
2023-05-08T15:50:17.098Z,48.7
2023-05-08T15:55:16.970Z,47.5
2023-05-08T16:00:17.138Z,46.4
2023-05-08T16:05:17.028Z,47.1
2023-05-08T16:10:17.074Z,47.5
2023-05-08T16:15:16.976Z,48.3
2023-05-08T16:20:17.072Z,47.2
2023-05-08T16:25:17.087Z,47.8
2023-05-08T16:30:17.143Z,48.1
2023-05-08T16:35:17.145Z,46.8
2023-05-08T16:40:17.235Z,47.8
2023-05-08T16:45:17.203Z,48.6
2023-05-08T16:50:17.269Z,48.8
2023-05-08T16:55:17.271Z,48.2
2023-05-08T17:00:17.175Z,46.6
2023-05-08T17:05:17.289Z,47.6
2023-05-08T17:10:17.208Z,46.2
2023-05-08T17:15:17.155Z,46.2
2023-05-08T17:20:17.217Z,45.4
2023-05-08T17:25:17.241Z,45.5
2023-05-08T17:30:17.313Z,46.2
2023-05-08T17:35:17.349Z,46.0
2023-05-08T17:40:17.281Z,44.6
2023-05-08T17:45:17.204Z,45.0
2023-05-08T17:50:17.459Z,44.2
2023-05-08T17:55:17.513Z,44.4
2023-05-08T18:00:17.319Z,45.6
2023-05-08T18:05:17.324Z,47.3
2023-05-08T18:10:17.294Z,44.8
2023-05-08T18:15:17.505Z,47.8
2023-05-08T18:20:17.376Z,43.7
2023-05-08T18:25:17.264Z,45.4
2023-05-08T18:30:17.299Z,43.2
2023-05-08T18:35:17.367Z,45.3
2023-05-08T18:40:17.257Z,44.7
2023-05-08T18:45:17.484Z,44.5
2023-05-08T18:50:17.585Z,45.7
2023-05-08T18:55:17.429Z,45.5
2023-05-08T19:00:17.733Z,42.4
2023-05-08T19:05:17.385Z,42.1
2023-05-08T19:10:15.733Z,45.4
2023-05-08T19:15:15.846Z,42.2
2023-05-08T19:20:15.788Z,41.1
2023-05-08T19:25:15.769Z,43.4
2023-05-08T19:30:15.687Z,40.5
2023-05-08T19:35:15.584Z,40.5
2023-05-08T19:40:16.625Z,41.7
2023-05-08T19:45:16.608Z,40.4
2023-05-08T19:50:16.333Z,40.6
2023-05-08T19:55:17.027Z,41.8
2023-05-08T20:00:15.675Z,42.9
2023-05-08T20:05:22.346Z,42.6
2023-05-08T20:10:15.852Z,43.0
2023-05-08T20:15:16.303Z,42.9
2023-05-08T20:20:15.794Z,41.6
2023-05-08T20:25:15.545Z,45.4
2023-05-08T20:30:15.694Z,45.0
2023-05-08T20:35:15.766Z,43.4
2023-05-08T20:40:15.904Z,43.7
2023-05-08T20:45:15.588Z,43.1
2023-05-08T20:50:15.764Z,43.6
2023-05-08T20:55:15.848Z,43.6
2023-05-08T21:00:15.845Z,43.0
2023-05-08T21:05:15.905Z,42.2
2023-05-08T21:10:15.935Z,40.7
2023-05-08T21:15:15.849Z,39.4
2023-05-08T21:20:15.990Z,38.6
2023-05-08T21:25:15.947Z,41.2
2023-05-08T21:30:15.901Z,40.2
2023-05-08T21:35:16.011Z,40.5
2023-05-08T21:40:15.801Z,39.8
2023-05-08T21:45:16.113Z,42.0
2023-05-08T21:50:15.741Z,41.6
2023-05-08T21:55:15.844Z,38.5
2023-05-08T22:00:15.693Z,39.3
2023-05-08T22:05:16.034Z,40.6
2023-05-08T22:10:15.785Z,42.3
2023-05-08T22:15:28.523Z,42.0
2023-05-08T22:20:15.913Z,39.8
2023-05-08T22:25:16.130Z,40.4
2023-05-08T22:30:15.896Z,39.7
2023-05-08T22:35:16.014Z,37.7
2023-05-08T22:40:15.961Z,38.9
2023-05-08T22:45:16.201Z,40.1
2023-05-08T22:50:15.905Z,42.8
2023-05-08T22:55:16.803Z,41.8
2023-05-08T23:00:15.929Z,39.7
2023-05-08T23:05:16.144Z,40.4
2023-05-08T23:10:16.206Z,41.3
2023-05-08T23:15:16.151Z,41.5
2023-05-08T23:20:15.922Z,41.8
2023-05-08T23:25:16.162Z,42.1
2023-05-08T23:30:15.987Z,42.9
2023-05-08T23:35:16.486Z,43.7
2023-05-08T23:40:16.131Z,44.9
2023-05-08T23:45:16.191Z,43.5
2023-05-08T23:50:16.021Z,41.3
2023-05-08T23:55:16.083Z,41.8
